createdAt,value
2023-01-28T00:02:16.167Z,14.95
2023-01-28T00:07:19.351Z,16.97
2023-01-28T00:12:21.724Z,12.98
2023-01-28T00:17:24.156Z,15.10
2023-01-28T00:22:26.571Z,14.23
2023-01-28T00:27:29.347Z,13.43
2023-01-28T00:32:33.632Z,13.60
2023-01-28T00:37:37.066Z,11.50
2023-01-28T00:42:39.485Z,14.50
2023-01-28T00:47:42.560Z,19.05
2023-01-28T00:52:45.019Z,15.55
2023-01-28T00:57:47.430Z,15.55
2023-01-28T01:02:49.934Z,13.88
2023-01-28T01:07:52.437Z,15.82
2023-01-28T01:12:58.190Z,17.15
2023-01-28T01:18:00.701Z,15.77
2023-01-28T01:23:03.390Z,13.27
2023-01-28T01:28:05.922Z,15.83
2023-01-28T01:33:08.343Z,13.50
2023-01-28T01:38:10.935Z,13.43
2023-01-28T01:43:19.693Z,12.55
2023-01-28T01:48:33.802Z,12.05
2023-01-28T01:53:38.812Z,14.25
2023-01-28T01:58:47.011Z,17.67
2023-01-28T02:04:18.025Z,16.08
2023-01-28T02:09:32.833Z,12.18
2023-01-28T02:14:37.639Z,13.43
2023-01-28T02:19:44.873Z,14.82
2023-01-28T02:25:33.852Z,15.20
2023-01-28T02:30:40.731Z,16.10
2023-01-28T02:35:49.782Z,14.70
2023-01-28T02:41:05.836Z,14.45
2023-01-28T02:46:45.768Z,13.90
2023-01-28T02:52:43.499Z,13.25
2023-01-28T02:58:02.913Z,13.00
2023-01-28T03:03:37.049Z,14.35
2023-01-28T03:09:03.221Z,12.45
2023-01-28T03:14:25.450Z,13.05
2023-01-28T03:19:46.506Z,12.35
2023-01-28T03:25:11.158Z,11.88
2023-01-28T03:30:51.025Z,11.35
2023-01-28T03:36:21.608Z,11.90
2023-01-28T03:41:26.179Z,13.13
2023-01-28T03:46:30.679Z,15.32
2023-01-28T03:51:33.905Z,15.50
2023-01-28T03:56:37.922Z,15.93
2023-01-28T04:01:40.626Z,10.18
2023-01-28T04:06:44.679Z,12.60
2023-01-28T04:12:19.517Z,10.35
2023-01-28T04:17:26.306Z,9.77
2023-01-28T04:22:28.901Z,7.17
2023-01-28T04:27:31.840Z,10.98
2023-01-28T04:32:43.244Z,11.27
2023-01-28T04:37:59.918Z,21.33
2023-01-28T04:43:07.659Z,25.17
2023-01-28T04:48:31.529Z,28.50
2023-01-28T04:54:00.178Z,23.48
2023-01-28T04:59:06.719Z,21.95
2023-01-28T05:09:14.301Z,11.30
2023-01-28T05:14:18.610Z,13.75
2023-01-28T05:19:31.095Z,16.25
2023-01-28T05:24:33.962Z,8.27
2023-01-28T05:29:36.495Z,11.23
2023-01-28T05:34:41.711Z,10.85
2023-01-28T05:39:49.448Z,30.45
2023-01-28T05:44:51.982Z,67.38
2023-01-28T05:50:13.624Z,13.93
2023-01-28T05:55:21.132Z,10.55
2023-01-28T06:00:24.207Z,9.37
2023-01-28T06:05:26.846Z,8.15
2023-01-28T06:10:30.247Z,11.70
2023-01-28T06:15:33.179Z,12.55
2023-01-28T06:21:01.709Z,13.00
2023-01-28T06:26:04.259Z,12.10
2023-01-28T06:31:08.816Z,14.73
2023-01-28T06:36:11.513Z,15.80
2023-01-28T06:41:13.951Z,15.70
2023-01-28T06:46:16.624Z,16.27
2023-01-28T06:51:19.474Z,13.55
2023-01-28T06:56:21.857Z,12.63
2023-01-28T07:01:24.259Z,12.52
2023-01-28T07:06:26.626Z,11.75
2023-01-28T07:11:29.217Z,13.23
2023-01-28T07:16:31.638Z,12.50
2023-01-28T07:21:33.972Z,16.98
2023-01-28T07:26:36.330Z,20.40
2023-01-28T07:31:38.911Z,20.50
2023-01-28T07:36:41.477Z,14.55
2023-01-28T07:41:44.129Z,13.30
2023-01-28T07:47:06.856Z,17.27
2023-01-28T07:52:11.845Z,16.92
2023-01-28T07:57:14.863Z,13.27
2023-01-28T08:02:18.054Z,12.30
2023-01-28T08:07:20.503Z,28.35
2023-01-28T08:12:22.937Z,46.95
2023-01-28T08:17:26.536Z,36.28
2023-01-28T08:22:28.966Z,28.27
2023-01-28T08:27:31.668Z,35.45
2023-01-28T08:32:34.138Z,41.17
2023-01-28T08:37:36.634Z,60.03
2023-01-28T08:42:39.106Z,35.97
2023-01-28T08:47:51.476Z,18.35
2023-01-28T08:53:02.530Z,16.40
2023-01-28T08:58:07.295Z,33.00
2023-01-28T09:03:10.045Z,17.50
2023-01-28T09:08:14.564Z,12.37
2023-01-28T09:13:17.180Z,15.82
2023-01-28T09:18:20.022Z,15.30
2023-01-28T09:23:24.801Z,13.63
2023-01-28T09:28:27.276Z,17.70
2023-01-28T09:33:30.752Z,19.48
2023-01-28T09:38:35.255Z,36.33
2023-01-28T09:43:54.618Z,67.35
2023-01-28T09:48:58.264Z,37.25
2023-01-28T09:54:15.565Z,24.50
2023-01-28T09:59:22.103Z,24.95
2023-01-28T10:04:35.146Z,17.35
2023-01-28T10:10:02.633Z,7.93
2023-01-28T10:15:31.141Z,15.90
2023-01-28T10:20:40.528Z,33.10
2023-01-28T10:25:45.261Z,33.97
2023-01-28T10:30:48.814Z,28.65
2023-01-28T10:35:51.254Z,17.25
2023-01-28T10:40:56.943Z,19.60
2023-01-28T10:46:05.506Z,18.92
2023-01-28T10:51:07.971Z,21.13
2023-01-28T10:56:18.637Z,24.38
2023-01-28T11:01:21.153Z,11.75
2023-01-28T11:06:26.536Z,13.50
2023-01-28T11:11:29.937Z,14.10
2023-01-28T11:16:32.585Z,15.18
2023-01-28T11:21:35.841Z,19.00
2023-01-28T11:26:40.263Z,18.80
2023-01-28T11:31:44.006Z,16.15
2023-01-28T11:36:51.809Z,24.45
2023-01-28T11:41:54.977Z,29.88
2023-01-28T11:47:22.371Z,16.27
2023-01-28T11:53:05.085Z,16.83
2023-01-28T11:58:17.846Z,16.90
2023-01-28T12:03:49.517Z,17.50
2023-01-28T12:09:36.116Z,28.00
2023-01-28T12:14:44.895Z,23.05
2023-01-28T12:20:13.226Z,15.45
2023-01-28T12:25:49.936Z,13.02
2023-01-28T12:31:04.372Z,16.38
2023-01-28T12:36:31.769Z,19.30
2023-01-28T12:41:43.902Z,66.50
2023-01-28T12:47:03.422Z,32.45
2023-01-28T12:52:17.937Z,43.28
2023-01-28T12:57:32.568Z,30.05
2023-01-28T13:02:39.672Z,46.80
2023-01-28T13:08:01.305Z,29.10
2023-01-28T13:13:07.386Z,13.57
2023-01-28T13:18:38.725Z,24.75
2023-01-28T13:23:50.225Z,28.67
2023-01-28T13:28:55.526Z,45.10
2023-01-28T13:33:58.369Z,36.22
2023-01-28T13:39:18.795Z,59.95
2023-01-28T13:44:34.009Z,52.72
2023-01-28T13:50:00.525Z,43.85
2023-01-28T13:55:30.365Z,39.80
2023-01-28T14:01:02.612Z,63.03
2023-01-28T14:06:54.638Z,28.90
2023-01-28T14:12:06.817Z,69.13
2023-01-28T14:17:20.671Z,48.58
2023-01-28T14:27:40.006Z,36.65
2023-01-28T14:32:49.939Z,29.23
2023-01-28T14:37:52.545Z,40.70
2023-01-28T14:42:55.876Z,39.63
2023-01-28T14:48:30.969Z,46.42
2023-01-28T14:53:56.589Z,51.13
2023-01-28T14:59:21.239Z,61.92
2023-01-28T15:04:29.736Z,52.08
2023-01-28T15:09:32.192Z,51.30
2023-01-28T15:14:34.719Z,34.85
2023-01-28T15:19:37.627Z,50.95
2023-01-28T15:24:43.263Z,48.47
2023-01-28T15:29:53.090Z,41.55
2023-01-28T15:34:55.949Z,38.50
2023-01-28T15:40:06.380Z,58.37
2023-01-28T15:45:16.766Z,33.03
2023-01-28T15:50:21.949Z,35.90
2023-01-28T15:55:35.600Z,78.40
2023-01-28T16:00:38.352Z,139.00
2023-01-28T16:05:42.283Z,69.40
2023-01-28T16:10:52.695Z,76.63
2023-01-28T16:15:56.428Z,43.42
2023-01-28T16:20:59.886Z,61.10
2023-01-28T16:26:18.844Z,48.70
2023-01-28T16:31:21.535Z,50.20
2023-01-28T16:36:24.133Z,56.07
2023-01-28T16:41:28.864Z,98.47
2023-01-28T16:46:33.717Z,129.35
2023-01-28T16:51:37.855Z,125.97
2023-01-28T16:56:47.671Z,204.07
2023-01-28T17:01:50.176Z,197.02
2023-01-28T17:06:53.298Z,99.10
2023-01-28T17:11:57.202Z,81.03
2023-01-28T17:17:00.022Z,60.08
2023-01-28T17:22:02.476Z,78.57
2023-01-28T17:27:05.865Z,59.88
2023-01-28T17:32:08.335Z,83.47
2023-01-28T17:37:10.815Z,59.55
2023-01-28T17:42:13.248Z,120.63
2023-01-28T17:47:15.793Z,59.90
2023-01-28T17:52:18.212Z,76.68
2023-01-28T17:57:21.706Z,57.55
2023-01-28T18:02:24.141Z,66.53
2023-01-28T18:07:26.738Z,51.58
2023-01-28T18:12:29.314Z,44.42
2023-01-28T18:17:31.755Z,41.78
2023-01-28T18:22:34.275Z,74.70
2023-01-28T18:27:36.678Z,67.88
2023-01-28T18:32:40.459Z,41.70
2023-01-28T18:37:43.390Z,42.33
2023-01-28T18:42:46.038Z,30.17
2023-01-28T18:47:48.414Z,52.08
2023-01-28T18:52:54.854Z,31.15
2023-01-28T18:57:58.476Z,30.77
2023-01-28T19:03:02.106Z,35.17
2023-01-28T19:13:08.009Z,35.63
2023-01-28T19:18:10.335Z,33.13
2023-01-28T19:23:13.119Z,24.63
2023-01-28T19:28:15.739Z,24.92
2023-01-28T19:33:18.152Z,28.45
2023-01-28T19:38:20.678Z,33.22
2023-01-28T19:43:23.726Z,39.47
2023-01-28T19:48:26.718Z,71.70
2023-01-28T19:53:29.132Z,52.78
2023-01-28T19:58:37.241Z,42.40
2023-01-28T20:03:40.217Z,32.28
2023-01-28T20:08:46.271Z,39.33
2023-01-28T20:13:52.714Z,42.10
2023-01-28T20:18:59.500Z,58.40
2023-01-28T20:24:06.694Z,47.70
2023-01-28T20:29:11.987Z,44.50
2023-01-28T20:34:19.881Z,37.80
2023-01-28T20:44:55.872Z,16.90
2023-01-28T20:50:00.003Z,30.98
2023-01-28T20:55:14.416Z,47.45
2023-01-28T21:00:17.704Z,34.13
2023-01-28T21:05:36.198Z,35.40
2023-01-28T21:10:45.798Z,37.95
2023-01-28T21:15:53.663Z,42.67
2023-01-28T21:21:03.257Z,38.63
2023-01-28T21:26:06.193Z,34.20
2023-01-28T21:31:11.754Z,49.03
2023-01-28T21:36:15.765Z,30.58
2023-01-28T21:41:18.258Z,32.45
2023-01-28T21:51:46.295Z,34.55
2023-01-28T21:56:50.252Z,45.47
2023-01-28T22:02:03.754Z,36.78
2023-01-28T22:07:08.688Z,35.45
2023-01-28T22:12:41.476Z,21.88
2023-01-28T22:23:10.453Z,29.08
2023-01-28T22:28:12.887Z,24.33
2023-01-28T22:33:15.364Z,24.20
2023-01-28T22:38:17.742Z,23.58
2023-01-28T22:43:20.135Z,16.15
2023-01-28T22:48:22.717Z,19.40
2023-01-28T22:53:25.053Z,18.83
2023-01-28T22:58:27.798Z,20.58
2023-01-28T23:03:30.816Z,15.10
2023-01-28T23:08:33.825Z,21.20
2023-01-28T23:13:54.624Z,16.33
2023-01-28T23:19:22.531Z,19.00
2023-01-28T23:24:25.427Z,20.45
2023-01-28T23:29:29.138Z,15.68
2023-01-28T23:39:39.258Z,18.48
2023-01-28T23:44:41.947Z,19.27
2023-01-28T23:49:44.322Z,14.70
2023-01-28T23:54:46.984Z,20.77
2023-01-28T23:59:49.527Z,18.67
